sensor_id;sensor_type;location;lat;lon;timestamp;temperature;humidity
26952;DHT22;14507;52.418;13.398;2024-01-15T00:01:54;2.60;99.90
26952;DHT22;14507;52.418;13.398;2024-01-15T00:04:20;2.50;99.90
26952;DHT22;14507;52.418;13.398;2024-01-15T00:06:45;2.60;99.90
26952;DHT22;14507;52.418;13.398;2024-01-15T00:09:11;2.50;99.90
26952;DHT22;14507;52.418;13.398;2024-01-15T00:11:37;2.40;99.90
26952;DHT22;14507;52.418;13.398;2024-01-15T00:14:02;2.50;99.90
26952;DHT22;14507;52.418;13.398;2024-01-15T00:16:28;2.40;99.90
26952;DHT22;14507;52.418;13.398;2024-01-15T00:18:54;2.40;99.90
26952;DHT22;14507;52.418;13.398;2024-01-15T00:21:20;2.40;99.90
26952;DHT22;14507;52.418;13.398;2024-01-15T00:23:45;2.40;99.90
26952;DHT22;14507;52.418;13.398;2024-01-15T00:26:11;2.40;99.90
26952;DHT22;14507;52.418;13.398;2024-01-15T00:28:37;2.30;99.90
26952;DHT22;14507;52.418;13.398;2024-01-15T00:31:04;2.30;99.90
26952;DHT22;14507;52.418;13.398;2024-01-15T00:33:30;2.30;99.90
26952;DHT22;14507;52.418;13.398;2024-01-15T00:35:56;2.30;99.90
26952;DHT22;14507;52.418;13.398;2024-01-15T00:38:21;2.30;99.90
26952;DHT22;14507;52.418;13.398;2024-01-15T00:40:47;2.30;99.90
26952;DHT22;14507;52.418;13.398;2024-01-15T00:43:12;2.30;99.90
26952;DHT22;14507;52.418;13.398;2024-01-15T00:45:38;2.30;99.90
26952;DHT22;14507;52.418;13.398;2024-01-15T00:48:04;2.30;99.90
26952;DHT22;14507;52.418;13.398;2024-01-15T00:50:30;2.30;99.90
26952;DHT22;14507;52.418;13.398;2024-01-15T00:52:55;2.30;99.90
26952;DHT22;14507;52.418;13.398;2024-01-15T00:55:21;2.40;99.90
26952;DHT22;14507;52.418;13.398;2024-01-15T00:57:47;2.40;99.90
26952;DHT22;14507;52.418;13.398;2024-01-15T01:00:13;2.40;99.90
26952;DHT22;14507;52.418;13.398;2024-01-15T01:02:38;2.30;99.90
26952;DHT22;14507;52.418;13.398;2024-01-15T01:05:04;2.40;99.90
26952;DHT22;14507;52.418;13.398;2024-01-15T01:07:30;2.40;99.90
26952;DHT22;14507;52.418;13.398;2024-01-15T01:09:55;2.40;99.90
26952;DHT22;14507;52.418;13.398;2024-01-15T01:12:21;2.40;99.90
26952;DHT22;14507;52.418;13.398;2024-01-15T01:14:47;2.40;99.90
26952;DHT22;14507;52.418;13.398;2024-01-15T01:17:12;2.40;99.90
26952;DHT22;14507;52.418;13.398;2024-01-15T01:19:38;3.10;99.90
26952;DHT22;14507;52.418;13.398;2024-01-15T01:22:04;2.40;99.90
26952;DHT22;14507;52.418;13.398;2024-01-15T01:24:29;2.40;99.90
26952;DHT22;14507;52.418;13.398;2024-01-15T01:26:55;2.40;99.90
26952;DHT22;14507;52.418;13.398;2024-01-15T01:29:20;2.30;99.90
26952;DHT22;14507;52.418;13.398;2024-01-15T01:31:46;2.40;99.90
26952;DHT22;14507;52.418;13.398;2024-01-15T01:34:16;2.40;99.90
26952;DHT22;14507;52.418;13.398;2024-01-15T01:36:42;2.30;99.90
26952;DHT22;14507;52.418;13.398;2024-01-15T01:39:08;2.30;99.90
26952;DHT22;14507;52.418;13.398;2024-01-15T01:41:34;2.30;99.90
26952;DHT22;14507;52.418;13.398;2024-01-15T01:44:00;2.30;99.90
26952;DHT22;14507;52.418;13.398;2024-01-15T01:46:27;2.20;99.90
26952;DHT22;14507;52.418;13.398;2024-01-15T01:48:54;2.20;99.90
26952;DHT22;14507;52.418;13.398;2024-01-15T01:51:22;2.30;99.90
26952;DHT22;14507;52.418;13.398;2024-01-15T01:53:48;2.20;99.90
26952;DHT22;14507;52.418;13.398;2024-01-15T01:56:14;2.20;99.90
26952;DHT22;14507;52.418;13.398;2024-01-15T01:58:41;2.20;99.90
26952;DHT22;14507;52.418;13.398;2024-01-15T02:01:06;2.10;99.90
26952;DHT22;14507;52.418;13.398;2024-01-15T02:03:32;2.10;99.90
26952;DHT22;14507;52.418;13.398;2024-01-15T02:05:59;2.10;99.90
26952;DHT22;14507;52.418;13.398;2024-01-15T02:08:25;2.10;99.90
26952;DHT22;14507;52.418;13.398;2024-01-15T02:10:51;2.10;99.90
26952;DHT22;14507;52.418;13.398;2024-01-15T02:13:18;2.10;99.90
26952;DHT22;14507;52.418;13.398;2024-01-15T02:15:43;2.10;99.90
26952;DHT22;14507;52.418;13.398;2024-01-15T02:18:09;2.20;99.90
26952;DHT22;14507;52.418;13.398;2024-01-15T02:20:35;2.20;99.90
26952;DHT22;14507;52.418;13.398;2024-01-15T02:23:19;2.20;99.90
26952;DHT22;14507;52.418;13.398;2024-01-15T02:25:46;2.20;99.90
26952;DHT22;14507;52.418;13.398;2024-01-15T02:28:14;2.10;99.90
26952;DHT22;14507;52.418;13.398;2024-01-15T02:30:41;2.10;99.90
26952;DHT22;14507;52.418;13.398;2024-01-15T02:33:07;2.10;99.90
26952;DHT22;14507;52.418;13.398;2024-01-15T02:35:34;2.20;99.90
26952;DHT22;14507;52.418;13.398;2024-01-15T02:38:05;2.10;99.90
26952;DHT22;14507;52.418;13.398;2024-01-15T02:40:31;2.10;99.90
26952;DHT22;14507;52.418;13.398;2024-01-15T02:42:57;2.10;99.90
26952;DHT22;14507;52.418;13.398;2024-01-15T02:45:22;2.00;99.90
26952;DHT22;14507;52.418;13.398;2024-01-15T02:47:49;2.00;99.90
26952;DHT22;14507;52.418;13.398;2024-01-15T02:50:15;2.10;99.90
26952;DHT22;14507;52.418;13.398;2024-01-15T02:52:42;2.00;99.90
26952;DHT22;14507;52.418;13.398;2024-01-15T02:55:07;2.00;99.90
26952;DHT22;14507;52.418;13.398;2024-01-15T02:57:33;2.00;99.90
26952;DHT22;14507;52.418;13.398;2024-01-15T02:59:59;2.10;99.90
26952;DHT22;14507;52.418;13.398;2024-01-15T03:02:25;2.10;99.90
26952;DHT22;14507;52.418;13.398;2024-01-15T03:04:50;2.00;99.90
26952;DHT22;14507;52.418;13.398;2024-01-15T03:07:16;2.00;99.90
26952;DHT22;14507;52.418;13.398;2024-01-15T03:09:42;2.00;99.90
26952;DHT22;14507;52.418;13.398;2024-01-15T03:12:07;2.00;99.90
26952;DHT22;14507;52.418;13.398;2024-01-15T03:14:33;2.00;99.90
26952;DHT22;14507;52.418;13.398;2024-01-15T03:16:59;2.00;99.90
26952;DHT22;14507;52.418;13.398;2024-01-15T03:19:26;2.00;99.90
26952;DHT22;14507;52.418;13.398;2024-01-15T03:21:52;2.00;99.90
26952;DHT22;14507;52.418;13.398;2024-01-15T03:24:17;2.00;99.90
26952;DHT22;14507;52.418;13.398;2024-01-15T03:26:43;2.00;99.90
26952;DHT22;14507;52.418;13.398;2024-01-15T03:29:08;2.10;99.90
26952;DHT22;14507;52.418;13.398;2024-01-15T03:31:34;2.00;99.90
26952;DHT22;14507;52.418;13.398;2024-01-15T03:34:00;2.00;99.90
26952;DHT22;14507;52.418;13.398;2024-01-15T03:36:25;2.00;99.90
26952;DHT22;14507;52.418;13.398;2024-01-15T03:38:51;2.00;99.90
26952;DHT22;14507;52.418;13.398;2024-01-15T03:41:17;2.00;99.90
26952;DHT22;14507;52.418;13.398;2024-01-15T03:43:42;2.00;99.90
26952;DHT22;14507;52.418;13.398;2024-01-15T03:46:08;1.90;99.90
26952;DHT22;14507;52.418;13.398;2024-01-15T03:48:34;2.00;99.90
26952;DHT22;14507;52.418;13.398;2024-01-15T03:50:59;2.00;99.90
26952;DHT22;14507;52.418;13.398;2024-01-15T03:53:25;2.10;99.90
26952;DHT22;14507;52.418;13.398;2024-01-15T03:55:52;2.10;99.90
26952;DHT22;14507;52.418;13.398;2024-01-15T03:58:17;2.10;99.90
26952;DHT22;14507;52.418;13.398;2024-01-15T04:00:43;2.10;99.90
26952;DHT22;14507;52.418;13.398;2024-01-15T04:03:09;2.20;99.90
26952;DHT22;14507;52.418;13.398;2024-01-15T04:05:35;2.10;99.90
26952;DHT22;14507;52.418;13.398;2024-01-15T04:08:01;2.10;99.90
26952;DHT22;14507;52.418;13.398;2024-01-15T04:10:26;2.20;99.90
26952;DHT22;14507;52.418;13.398;2024-01-15T04:12:52;2.10;99.90
26952;DHT22;14507;52.418;13.398;2024-01-15T04:15:17;2.10;99.90
26952;DHT22;14507;52.418;13.398;2024-01-15T04:17:43;2.20;99.90
26952;DHT22;14507;52.418;13.398;2024-01-15T04:20:09;2.20;99.90
26952;DHT22;14507;52.418;13.398;2024-01-15T04:22:35;2.10;99.90
26952;DHT22;14507;52.418;13.398;2024-01-15T04:25:01;2.10;99.90
26952;DHT22;14507;52.418;13.398;2024-01-15T04:27:27;2.10;99.90
26952;DHT22;14507;52.418;13.398;2024-01-15T04:29:53;2.20;99.90
26952;DHT22;14507;52.418;13.398;2024-01-15T04:32:19;2.20;99.90
26952;DHT22;14507;52.418;13.398;2024-01-15T04:34:45;2.20;99.90
26952;DHT22;14507;52.418;13.398;2024-01-15T04:37:11;2.20;99.90
26952;DHT22;14507;52.418;13.398;2024-01-15T04:39:36;2.20;99.90
26952;DHT22;14507;52.418;13.398;2024-01-15T04:42:02;2.20;99.90
26952;DHT22;14507;52.418;13.398;2024-01-15T04:44:28;2.20;99.90
26952;DHT22;14507;52.418;13.398;2024-01-15T04:46:54;2.20;99.90
26952;DHT22;14507;52.418;13.398;2024-01-15T04:49:20;2.20;99.90
26952;DHT22;14507;52.418;13.398;2024-01-15T04:51:45;2.20;99.90
26952;DHT22;14507;52.418;13.398;2024-01-15T04:54:11;2.20;99.90
26952;DHT22;14507;52.418;13.398;2024-01-15T04:56:37;2.20;99.90
26952;DHT22;14507;52.418;13.398;2024-01-15T04:59:03;2.20;99.90
26952;DHT22;14507;52.418;13.398;2024-01-15T05:01:32;2.20;99.90
26952;DHT22;14507;52.418;13.398;2024-01-15T05:03:58;2.20;99.90
26952;DHT22;14507;52.418;13.398;2024-01-15T05:06:23;2.20;99.90
26952;DHT22;14507;52.418;13.398;2024-01-15T05:08:49;2.20;99.90
26952;DHT22;14507;52.418;13.398;2024-01-15T05:11:15;2.20;99.90
26952;DHT22;14507;52.418;13.398;2024-01-15T05:13:41;2.20;99.90
26952;DHT22;14507;52.418;13.398;2024-01-15T05:16:06;2.20;99.90
26952;DHT22;14507;52.418;13.398;2024-01-15T05:18:32;2.10;99.90
26952;DHT22;14507;52.418;13.398;2024-01-15T05:20:58;2.20;99.90
26952;DHT22;14507;52.418;13.398;2024-01-15T05:23:23;2.10;99.90
26952;DHT22;14507;52.418;13.398;2024-01-15T05:25:49;2.10;99.90
26952;DHT22;14507;52.418;13.398;2024-01-15T05:28:15;2.10;99.90
26952;DHT22;14507;52.418;13.398;2024-01-15T05:30:40;2.10;99.90
26952;DHT22;14507;52.418;13.398;2024-01-15T05:33:06;2.10;99.90
26952;DHT22;14507;52.418;13.398;2024-01-15T05:35:33;2.20;99.90
26952;DHT22;14507;52.418;13.398;2024-01-15T05:37:59;2.10;99.90
26952;DHT22;14507;52.418;13.398;2024-01-15T05:40:24;2.20;99.90
26952;DHT22;14507;52.418;13.398;2024-01-15T05:42:50;2.20;99.90
26952;DHT22;14507;52.418;13.398;2024-01-15T05:45:16;2.30;99.90
26952;DHT22;14507;52.418;13.398;2024-01-15T05:47:41;2.20;99.90
26952;DHT22;14507;52.418;13.398;2024-01-15T05:50:08;3.20;99.90
26952;DHT22;14507;52.418;13.398;2024-01-15T05:52:33;2.30;99.90
26952;DHT22;14507;52.418;13.398;2024-01-15T05:54:59;2.30;99.90
26952;DHT22;14507;52.418;13.398;2024-01-15T05:57:25;2.30;99.90
26952;DHT22;14507;52.418;13.398;2024-01-15T05:59:50;2.30;99.90
26952;DHT22;14507;52.418;13.398;2024-01-15T06:02:16;2.30;99.90
26952;DHT22;14507;52.418;13.398;2024-01-15T06:04:42;2.30;99.90
26952;DHT22;14507;52.418;13.398;2024-01-15T06:07:07;2.30;99.90
26952;DHT22;14507;52.418;13.398;2024-01-15T06:09:33;2.20;99.90
26952;DHT22;14507;52.418;13.398;2024-01-15T06:11:59;2.20;99.90
26952;DHT22;14507;52.418;13.398;2024-01-15T06:14:24;2.20;99.90
26952;DHT22;14507;52.418;13.398;2024-01-15T06:16:50;2.20;99.90
26952;DHT22;14507;52.418;13.398;2024-01-15T06:19:15;2.20;99.90
26952;DHT22;14507;52.418;13.398;2024-01-15T06:21:41;2.20;99.90
26952;DHT22;14507;52.418;13.398;2024-01-15T06:24:07;2.30;99.90
26952;DHT22;14507;52.418;13.398;2024-01-15T06:26:32;2.20;99.90
26952;DHT22;14507;52.418;13.398;2024-01-15T06:28:58;2.20;99.90
26952;DHT22;14507;52.418;13.398;2024-01-15T06:31:24;2.10;99.90
26952;DHT22;14507;52.418;13.398;2024-01-15T06:33:49;2.30;99.90
26952;DHT22;14507;52.418;13.398;2024-01-15T06:36:15;2.30;99.90
26952;DHT22;14507;52.418;13.398;2024-01-15T06:38:43;2.20;99.90
26952;DHT22;14507;52.418;13.398;2024-01-15T06:41:10;2.20;99.90
26952;DHT22;14507;52.418;13.398;2024-01-15T06:43:35;2.30;99.90
26952;DHT22;14507;52.418;13.398;2024-01-15T06:46:01;2.30;99.90
26952;DHT22;14507;52.418;13.398;2024-01-15T06:48:26;2.30;99.90
26952;DHT22;14507;52.418;13.398;2024-01-15T06:50:52;2.30;99.90
26952;DHT22;14507;52.418;13.398;2024-01-15T06:53:18;2.30;99.90
26952;DHT22;14507;52.418;13.398;2024-01-15T06:55:43;2.30;99.90
26952;DHT22;14507;52.418;13.398;2024-01-15T06:58:09;2.40;99.90
26952;DHT22;14507;52.418;13.398;2024-01-15T07:00:35;2.40;99.90
26952;DHT22;14507;52.418;13.398;2024-01-15T07:03:00;2.30;99.90
26952;DHT22;14507;52.418;13.398;2024-01-15T07:05:26;2.30;99.90
26952;DHT22;14507;52.418;13.398;2024-01-15T07:07:52;2.40;99.90
26952;DHT22;14507;52.418;13.398;2024-01-15T07:10:17;2.30;99.90
26952;DHT22;14507;52.418;13.398;2024-01-15T07:12:43;2.40;99.90
26952;DHT22;14507;52.418;13.398;2024-01-15T07:15:09;2.30;99.90
26952;DHT22;14507;52.418;13.398;2024-01-15T07:17:36;2.40;99.90
26952;DHT22;14507;52.418;13.398;2024-01-15T07:20:08;2.50;99.90
26952;DHT22;14507;52.418;13.398;2024-01-15T07:22:37;2.50;99.90
26952;DHT22;14507;52.418;13.398;2024-01-15T07:25:03;2.50;99.90
26952;DHT22;14507;52.418;13.398;2024-01-15T07:27:33;2.50;99.90
26952;DHT22;14507;52.418;13.398;2024-01-15T07:29:58;2.50;99.90
26952;DHT22;14507;52.418;13.398;2024-01-15T07:32:24;2.60;99.90
26952;DHT22;14507;52.418;13.398;2024-01-15T07:34:50;2.80;99.90
26952;DHT22;14507;52.418;13.398;2024-01-15T07:37:15;2.60;99.90
26952;DHT22;14507;52.418;13.398;2024-01-15T07:39:41;2.60;99.90
26952;DHT22;14507;52.418;13.398;2024-01-15T07:42:06;2.60;99.90
26952;DHT22;14507;52.418;13.398;2024-01-15T07:44:33;2.60;99.90
26952;DHT22;14507;52.418;13.398;2024-01-15T07:46:58;2.60;99.90
26952;DHT22;14507;52.418;13.398;2024-01-15T07:49:24;2.60;99.90
26952;DHT22;14507;52.418;13.398;2024-01-15T07:51:50;2.70;99.90
26952;DHT22;14507;52.418;13.398;2024-01-15T07:54:16;2.70;99.90
26952;DHT22;14507;52.418;13.398;2024-01-15T07:59:19;2.70;99.90
26952;DHT22;14507;52.418;13.398;2024-01-15T08:01:45;2.70;99.90
26952;DHT22;14507;52.418;13.398;2024-01-15T08:04:10;2.70;99.90
26952;DHT22;14507;52.418;13.398;2024-01-15T08:06:38;2.70;99.90
26952;DHT22;14507;52.418;13.398;2024-01-15T08:09:04;2.70;99.90
26952;DHT22;14507;52.418;13.398;2024-01-15T08:11:30;2.80;99.90
26952;DHT22;14507;52.418;13.398;2024-01-15T08:13:55;2.70;99.90
26952;DHT22;14507;52.418;13.398;2024-01-15T08:16:21;2.70;99.90
26952;DHT22;14507;52.418;13.398;2024-01-15T08:18:47;2.70;99.90
26952;DHT22;14507;52.418;13.398;2024-01-15T08:21:13;2.70;99.90
26952;DHT22;14507;52.418;13.398;2024-01-15T08:23:39;2.70;99.90
26952;DHT22;14507;52.418;13.398;2024-01-15T08:26:04;2.80;99.90
26952;DHT22;14507;52.418;13.398;2024-01-15T08:28:30;2.80;99.90
26952;DHT22;14507;52.418;13.398;2024-01-15T08:30:56;2.80;99.90
26952;DHT22;14507;52.418;13.398;2024-01-15T08:33:22;2.80;99.90
26952;DHT22;14507;52.418;13.398;2024-01-15T08:35:48;2.80;99.90
26952;DHT22;14507;52.418;13.398;2024-01-15T08:38:13;2.80;99.90
26952;DHT22;14507;52.418;13.398;2024-01-15T08:40:39;2.90;99.90
26952;DHT22;14507;52.418;13.398;2024-01-15T08:43:04;2.90;99.90
26952;DHT22;14507;52.418;13.398;2024-01-15T08:45:32;2.90;99.90
26952;DHT22;14507;52.418;13.398;2024-01-15T08:47:58;3.00;99.90
26952;DHT22;14507;52.418;13.398;2024-01-15T08:50:23;3.10;99.90
26952;DHT22;14507;52.418;13.398;2024-01-15T08:52:49;3.10;99.90
26952;DHT22;14507;52.418;13.398;2024-01-15T08:55:15;3.10;99.90
26952;DHT22;14507;52.418;13.398;2024-01-15T08:57:40;3.10;99.90
26952;DHT22;14507;52.418;13.398;2024-01-15T09:00:06;3.10;99.90
26952;DHT22;14507;52.418;13.398;2024-01-15T09:02:35;3.10;99.90
26952;DHT22;14507;52.418;13.398;2024-01-15T09:05:01;3.00;99.90
26952;DHT22;14507;52.418;13.398;2024-01-15T09:07:27;3.00;99.90
26952;DHT22;14507;52.418;13.398;2024-01-15T09:09:53;3.00;99.90
26952;DHT22;14507;52.418;13.398;2024-01-15T09:12:19;3.00;99.90
26952;DHT22;14507;52.418;13.398;2024-01-15T09:14:46;3.00;99.90
26952;DHT22;14507;52.418;13.398;2024-01-15T09:17:12;3.00;99.90
26952;DHT22;14507;52.418;13.398;2024-01-15T09:19:38;3.00;99.90
26952;DHT22;14507;52.418;13.398;2024-01-15T09:22:07;3.00;99.90
26952;DHT22;14507;52.418;13.398;2024-01-15T09:24:32;3.00;99.90
26952;DHT22;14507;52.418;13.398;2024-01-15T09:26:58;3.00;99.90
26952;DHT22;14507;52.418;13.398;2024-01-15T09:29:24;3.00;99.90
26952;DHT22;14507;52.418;13.398;2024-01-15T09:31:50;3.00;99.90
26952;DHT22;14507;52.418;13.398;2024-01-15T09:34:16;3.00;99.90
26952;DHT22;14507;52.418;13.398;2024-01-15T09:36:42;3.00;99.90
26952;DHT22;14507;52.418;13.398;2024-01-15T09:39:08;2.90;99.90
26952;DHT22;14507;52.418;13.398;2024-01-15T09:41:38;3.00;99.90
26952;DHT22;14507;52.418;13.398;2024-01-15T09:44:04;3.00;99.90
26952;DHT22;14507;52.418;13.398;2024-01-15T09:46:31;2.90;99.90
26952;DHT22;14507;52.418;13.398;2024-01-15T09:48:58;3.00;99.90
26952;DHT22;14507;52.418;13.398;2024-01-15T09:51:24;3.00;99.90
26952;DHT22;14507;52.418;13.398;2024-01-15T09:53:50;2.90;99.90
26952;DHT22;14507;52.418;13.398;2024-01-15T09:56:16;3.00;99.90
26952;DHT22;14507;52.418;13.398;2024-01-15T09:58:42;3.00;99.90
26952;DHT22;14507;52.418;13.398;2024-01-15T10:01:08;3.10;99.90
26952;DHT22;14507;52.418;13.398;2024-01-15T10:03:34;3.10;99.90
26952;DHT22;14507;52.418;13.398;2024-01-15T10:06:05;3.10;99.90
26952;DHT22;14507;52.418;13.398;2024-01-15T10:08:32;3.20;99.90
26952;DHT22;14507;52.418;13.398;2024-01-15T10:10:58;3.20;99.90
26952;DHT22;14507;52.418;13.398;2024-01-15T10:13:23;3.30;99.90
26952;DHT22;14507;52.418;13.398;2024-01-15T10:15:49;3.30;99.90
26952;DHT22;14507;52.418;13.398;2024-01-15T10:18:15;3.30;99.90
26952;DHT22;14507;52.418;13.398;2024-01-15T10:20:41;3.30;99.90
26952;DHT22;14507;52.418;13.398;2024-01-15T10:23:08;3.30;99.90
26952;DHT22;14507;52.418;13.398;2024-01-15T10:25:35;3.30;99.90
26952;DHT22;14507;52.418;13.398;2024-01-15T10:28:02;3.30;99.90
26952;DHT22;14507;52.418;13.398;2024-01-15T10:30:29;3.30;99.90
26952;DHT22;14507;52.418;13.398;2024-01-15T10:33:02;3.40;99.90
26952;DHT22;14507;52.418;13.398;2024-01-15T10:35:32;3.90;99.90
26952;DHT22;14507;52.418;13.398;2024-01-15T10:37:59;4.10;99.90
26952;DHT22;14507;52.418;13.398;2024-01-15T10:40:24;4.20;99.90
26952;DHT22;14507;52.418;13.398;2024-01-15T10:42:50;4.20;99.90
26952;DHT22;14507;52.418;13.398;2024-01-15T10:45:16;4.10;99.90
26952;DHT22;14507;52.418;13.398;2024-01-15T10:47:42;4.00;99.90
26952;DHT22;14507;52.418;13.398;2024-01-15T10:50:09;3.90;99.90
26952;DHT22;14507;52.418;13.398;2024-01-15T10:52:39;4.10;99.90
26952;DHT22;14507;52.418;13.398;2024-01-15T10:55:09;4.10;99.90
26952;DHT22;14507;52.418;13.398;2024-01-15T10:57:36;4.00;99.90
26952;DHT22;14507;52.418;13.398;2024-01-15T11:00:03;3.90;99.90
26952;DHT22;14507;52.418;13.398;2024-01-15T11:02:34;3.90;99.90
26952;DHT22;14507;52.418;13.398;2024-01-15T11:05:00;3.90;99.90
26952;DHT22;14507;52.418;13.398;2024-01-15T11:07:27;3.90;99.90
26952;DHT22;14507;52.418;13.398;2024-01-15T11:09:55;3.90;99.90
26952;DHT22;14507;52.418;13.398;2024-01-15T11:12:20;4.00;99.90
26952;DHT22;14507;52.418;13.398;2024-01-15T11:14:47;4.00;99.90
26952;DHT22;14507;52.418;13.398;2024-01-15T11:17:13;4.00;99.90
26952;DHT22;14507;52.418;13.398;2024-01-15T11:25:03;4.00;99.90
26952;DHT22;14507;52.418;13.398;2024-01-15T11:27:50;4.00;99.90
26952;DHT22;14507;52.418;13.398;2024-01-15T11:30:24;3.90;99.90
26952;DHT22;14507;52.418;13.398;2024-01-15T11:32:50;3.90;99.90
26952;DHT22;14507;52.418;13.398;2024-01-15T11:35:16;3.80;99.90
26952;DHT22;14507;52.418;13.398;2024-01-15T11:42:59;3.60;99.90
26952;DHT22;14507;52.418;13.398;2024-01-15T11:45:24;3.60;99.90
26952;DHT22;14507;52.418;13.398;2024-01-15T11:50:48;3.50;99.90
26952;DHT22;14507;52.418;13.398;2024-01-15T11:53:27;3.50;99.90
26952;DHT22;14507;52.418;13.398;2024-01-15T11:55:57;3.50;99.90
26952;DHT22;14507;52.418;13.398;2024-01-15T11:58:23;3.50;99.90
26952;DHT22;14507;52.418;13.398;2024-01-15T12:00:50;3.40;99.90
26952;DHT22;14507;52.418;13.398;2024-01-15T12:03:16;3.40;99.90
26952;DHT22;14507;52.418;13.398;2024-01-15T12:05:42;3.30;99.90
26952;DHT22;14507;52.418;13.398;2024-01-15T12:08:08;3.40;99.90
26952;DHT22;14507;52.418;13.398;2024-01-15T12:10:37;3.40;99.90
26952;DHT22;14507;52.418;13.398;2024-01-15T12:13:13;3.40;99.90
26952;DHT22;14507;52.418;13.398;2024-01-15T12:15:41;3.30;99.90
26952;DHT22;14507;52.418;13.398;2024-01-15T12:18:08;3.30;99.90
26952;DHT22;14507;52.418;13.398;2024-01-15T12:20:34;3.40;99.90
26952;DHT22;14507;52.418;13.398;2024-01-15T12:23:01;3.30;99.90
26952;DHT22;14507;52.418;13.398;2024-01-15T12:25:29;3.30;99.90
26952;DHT22;14507;52.418;13.398;2024-01-15T12:27:56;3.30;99.90
26952;DHT22;14507;52.418;13.398;2024-01-15T12:30:22;3.30;99.90
26952;DHT22;14507;52.418;13.398;2024-01-15T12:32:48;3.30;99.90
26952;DHT22;14507;52.418;13.398;2024-01-15T12:35:14;3.30;99.90
26952;DHT22;14507;52.418;13.398;2024-01-15T12:37:41;3.30;99.90
26952;DHT22;14507;52.418;13.398;2024-01-15T12:40:08;3.30;99.90
26952;DHT22;14507;52.418;13.398;2024-01-15T12:42:37;3.30;99.90
26952;DHT22;14507;52.418;13.398;2024-01-15T12:45:09;3.20;99.90
26952;DHT22;14507;52.418;13.398;2024-01-15T12:47:36;3.20;99.90
26952;DHT22;14507;52.418;13.398;2024-01-15T12:50:02;3.20;99.90
26952;DHT22;14507;52.418;13.398;2024-01-15T12:52:28;3.20;99.90
26952;DHT22;14507;52.418;13.398;2024-01-15T12:54:54;3.10;99.90
26952;DHT22;14507;52.418;13.398;2024-01-15T12:57:20;3.20;99.90
26952;DHT22;14507;52.418;13.398;2024-01-15T12:59:46;3.10;99.90
26952;DHT22;14507;52.418;13.398;2024-01-15T13:02:12;3.10;99.90
26952;DHT22;14507;52.418;13.398;2024-01-15T13:04:38;3.10;99.90
26952;DHT22;14507;52.418;13.398;2024-01-15T13:07:05;3.10;99.90
26952;DHT22;14507;52.418;13.398;2024-01-15T13:09:31;3.00;99.90
26952;DHT22;14507;52.418;13.398;2024-01-15T13:11:57;3.10;99.90
26952;DHT22;14507;52.418;13.398;2024-01-15T13:14:23;3.10;99.90
26952;DHT22;14507;52.418;13.398;2024-01-15T13:16:48;3.10;99.90
26952;DHT22;14507;52.418;13.398;2024-01-15T13:19:14;3.10;99.90
26952;DHT22;14507;52.418;13.398;2024-01-15T13:21:43;3.30;99.90
26952;DHT22;14507;52.418;13.398;2024-01-15T13:24:09;3.10;99.90
26952;DHT22;14507;52.418;13.398;2024-01-15T13:26:35;3.10;99.90
26952;DHT22;14507;52.418;13.398;2024-01-15T13:29:04;3.10;99.90
26952;DHT22;14507;52.418;13.398;2024-01-15T13:31:30;3.10;99.90
26952;DHT22;14507;52.418;13.398;2024-01-15T13:33:56;3.10;99.90
26952;DHT22;14507;52.418;13.398;2024-01-15T13:36:28;3.10;99.90
26952;DHT22;14507;52.418;13.398;2024-01-15T13:38:54;3.10;99.90
26952;DHT22;14507;52.418;13.398;2024-01-15T13:41:23;3.10;99.90
26952;DHT22;14507;52.418;13.398;2024-01-15T13:43:54;3.10;99.90
26952;DHT22;14507;52.418;13.398;2024-01-15T13:46:20;3.00;99.90
26952;DHT22;14507;52.418;13.398;2024-01-15T13:48:47;3.00;99.90
26952;DHT22;14507;52.418;13.398;2024-01-15T13:51:13;3.00;99.90
26952;DHT22;14507;52.418;13.398;2024-01-15T13:53:38;3.10;99.90
26952;DHT22;14507;52.418;13.398;2024-01-15T13:56:05;3.10;99.90
26952;DHT22;14507;52.418;13.398;2024-01-15T13:58:31;3.00;99.90
26952;DHT22;14507;52.418;13.398;2024-01-15T14:00:58;3.00;99.90
26952;DHT22;14507;52.418;13.398;2024-01-15T14:03:24;3.00;99.90
26952;DHT22;14507;52.418;13.398;2024-01-15T14:05:51;3.00;99.90
26952;DHT22;14507;52.418;13.398;2024-01-15T14:08:17;2.90;99.90
26952;DHT22;14507;52.418;13.398;2024-01-15T14:10:42;3.00;99.90
26952;DHT22;14507;52.418;13.398;2024-01-15T14:13:08;2.90;99.90
26952;DHT22;14507;52.418;13.398;2024-01-15T14:15:34;3.00;99.90
26952;DHT22;14507;52.418;13.398;2024-01-15T14:18:00;3.00;99.90
26952;DHT22;14507;52.418;13.398;2024-01-15T14:20:26;3.00;99.90
26952;DHT22;14507;52.418;13.398;2024-01-15T14:22:53;2.90;99.90
26952;DHT22;14507;52.418;13.398;2024-01-15T14:25:19;2.90;99.90
26952;DHT22;14507;52.418;13.398;2024-01-15T14:27:45;2.90;99.90
26952;DHT22;14507;52.418;13.398;2024-01-15T14:30:11;2.80;99.90
26952;DHT22;14507;52.418;13.398;2024-01-15T14:32:38;2.90;99.90
26952;DHT22;14507;52.418;13.398;2024-01-15T14:35:05;2.80;99.90
26952;DHT22;14507;52.418;13.398;2024-01-15T14:37:31;2.90;99.90
26952;DHT22;14507;52.418;13.398;2024-01-15T14:39:56;2.80;99.90
26952;DHT22;14507;52.418;13.398;2024-01-15T14:42:22;2.80;99.90
26952;DHT22;14507;52.418;13.398;2024-01-15T14:44:49;2.80;99.90
26952;DHT22;14507;52.418;13.398;2024-01-15T14:47:15;2.80;99.90
26952;DHT22;14507;52.418;13.398;2024-01-15T14:49:41;2.80;99.90
26952;DHT22;14507;52.418;13.398;2024-01-15T14:52:06;2.70;99.90
26952;DHT22;14507;52.418;13.398;2024-01-15T14:54:32;2.80;99.90
26952;DHT22;14507;52.418;13.398;2024-01-15T14:56:58;2.70;99.90
26952;DHT22;14507;52.418;13.398;2024-01-15T14:59:23;2.70;99.90
26952;DHT22;14507;52.418;13.398;2024-01-15T15:01:49;2.70;99.90
26952;DHT22;14507;52.418;13.398;2024-01-15T15:04:15;2.80;99.90
26952;DHT22;14507;52.418;13.398;2024-01-15T15:06:40;2.70;99.90
26952;DHT22;14507;52.418;13.398;2024-01-15T15:09:06;2.70;99.90
26952;DHT22;14507;52.418;13.398;2024-01-15T15:11:35;2.70;99.90
26952;DHT22;14507;52.418;13.398;2024-01-15T15:14:01;2.60;99.90
26952;DHT22;14507;52.418;13.398;2024-01-15T15:16:27;2.60;99.90
26952;DHT22;14507;52.418;13.398;2024-01-15T15:18:53;2.70;99.90
26952;DHT22;14507;52.418;13.398;2024-01-15T15:21:20;2.70;99.90
26952;DHT22;14507;52.418;13.398;2024-01-15T15:23:45;2.60;99.90
26952;DHT22;14507;52.418;13.398;2024-01-15T15:26:13;2.60;99.90
26952;DHT22;14507;52.418;13.398;2024-01-15T15:28:38;2.70;99.90
26952;DHT22;14507;52.418;13.398;2024-01-15T15:31:08;2.70;99.90
26952;DHT22;14507;52.418;13.398;2024-01-15T15:33:34;2.60;99.90
26952;DHT22;14507;52.418;13.398;2024-01-15T15:36:00;2.60;99.90
26952;DHT22;14507;52.418;13.398;2024-01-15T15:38:33;2.60;99.90
26952;DHT22;14507;52.418;13.398;2024-01-15T15:40:58;2.70;99.90